Time;durP1;ratioP1;P1;durP2;ratioP2;P2;SDS_P1;SDS_P2;PMS_P1;PMS_P2;Temp;Humidity;BMP_temperature;BMP_pressure;BME280_temperature;BME280_humidity;BME280_pressure;Samples;Min_cycle;Max_cycle;Signal;HPM_P1;HPM_P2
2023/01/09 00:01:37;;;;;;;2.63;1.10;;;;;;;4.82;100.00;99412.53;5074848;28;20085;-81
2023/01/09 00:04:03;;;;;;;2.25;1.38;;;;;;;4.73;100.00;99402.41;5075046;28;20029;-80
2023/01/09 00:06:29;;;;;;;2.30;1.00;;;;;;;4.73;100.00;99414.47;5074964;28;20078;-81
2023/01/09 00:08:54;;;;;;;2.28;1.67;;;;;;;4.64;100.00;99411.22;5074534;28;20426;-80
2023/01/09 00:11:19;;;;;;;1.25;1.10;;;;;;;4.57;100.00;99424.28;5077606;28;20036;-81
2023/01/09 00:13:46;;;;;;;2.33;1.10;;;;;;;4.51;100.00;99422.69;5074403;28;20025;-80
2023/01/09 00:16:11;;;;;;;2.88;1.20;;;;;;;4.45;100.00;99430.56;5073617;28;20422;-81
2023/01/09 00:18:37;;;;;;;1.52;1.00;;;;;;;4.36;100.00;99418.72;5074043;28;20032;-80
2023/01/09 00:21:05;;;;;;;1.95;1.10;;;;;;;4.37;100.00;99441.03;5073512;28;20472;-80
2023/01/09 00:23:30;;;;;;;3.50;1.13;;;;;;;4.28;100.00;99435.22;5080602;28;20032;-80
2023/01/09 00:26:25;;;;;;;1.17;1.08;;;;;;;4.23;100.00;99432.75;5075914;28;20040;-80
2023/01/09 00:28:51;;;;;;;3.25;1.02;;;;;;;4.14;100.00;99430.34;5060479;28;20043;-80
2023/01/09 00:31:17;;;;;;;3.55;1.23;;;;;;;4.13;100.00;99434.66;5073991;28;20043;-81
2023/01/09 00:33:51;;;;;;;2.15;1.35;;;;;;;4.10;100.00;99447.59;5074361;28;20174;-80
2023/01/09 00:36:17;;;;;;;3.60;1.35;;;;;;;4.00;100.00;99438.34;5073781;28;20039;-80
2023/01/09 00:38:42;;;;;;;5.47;1.15;;;;;;;3.99;100.00;99436.66;5091162;28;20020;-80
2023/01/09 00:41:14;;;;;;;3.15;1.50;;;;;;;3.91;100.00;99433.34;5082736;28;20044;-80
2023/01/09 00:43:45;;;;;;;5.57;1.30;;;;;;;3.95;100.00;99441.00;5086764;28;20024;-81
2023/01/09 00:46:13;;;;;;;2.85;1.40;;;;;;;3.92;100.00;99448.81;5075313;28;20027;-81
2023/01/09 00:48:42;;;;;;;2.70;1.10;;;;;;;3.84;100.00;99440.34;5076727;28;20382;-80
2023/01/09 00:51:07;;;;;;;4.43;1.38;;;;;;;3.84;100.00;99434.34;5083698;28;20036;-80
2023/01/09 00:53:36;;;;;;;3.00;1.23;;;;;;;3.82;100.00;99439.53;5074124;28;20025;-81
2023/01/09 00:56:05;;;;;;;3.78;1.38;;;;;;;3.83;100.00;99443.81;5084173;28;20052;-80
2023/01/09 00:58:32;;;;;;;2.58;1.38;;;;;;;3.77;100.00;99435.34;5073175;28;20028;-80
2023/01/09 01:00:58;;;;;;;3.38;1.50;;;;;;;3.60;100.00;99415.88;5074484;28;20446;-80
2023/01/09 01:03:23;;;;;;;3.47;1.65;;;;;;;3.71;100.00;99428.56;5072954;28;20056;-80
2023/01/09 01:08:32;;;;;;;5.45;1.85;;;;;;;3.72;100.00;99443.16;5067851;28;20052;-80
2023/01/09 01:11:03;;;;;;;7.20;1.90;;;;;;;3.72;100.00;99445.72;5073289;28;20016;-80
2023/01/09 01:13:29;;;;;;;3.53;1.50;;;;;;;3.72;100.00;99453.47;5073860;28;20121;-80
2023/01/09 01:15:54;;;;;;;4.63;1.42;;;;;;;3.66;100.00;99443.25;5073757;28;20407;-80
2023/01/09 01:18:19;;;;;;;9.07;1.85;;;;;;;3.65;100.00;99451.88;5071874;28;20035;-80
2023/01/09 01:20:45;;;;;;;4.38;1.98;;;;;;;3.59;100.00;99446.81;5073653;28;20099;-80
2023/01/09 01:23:11;;;;;;;2.72;1.50;;;;;;;3.55;100.00;99451.19;5073226;28;20062;-80
2023/01/09 01:25:40;;;;;;;4.20;1.80;;;;;;;3.55;100.00;99460.66;5073260;28;20107;-80
2023/01/09 01:28:06;;;;;;;7.15;1.90;;;;;;;3.49;100.00;99454.72;5060164;28;20021;-80
2023/01/09 01:30:32;;;;;;;4.30;1.40;;;;;;;3.39;100.00;99455.75;5073352;28;20517;-80
2023/01/09 01:32:57;;;;;;;2.33;1.50;;;;;;;3.49;100.00;99466.75;5072932;28;20040;-80
2023/01/09 01:35:23;;;;;;;8.02;2.00;;;;;;;3.44;100.00;99468.56;5072559;28;20078;-80
2023/01/09 01:37:48;;;;;;;4.13;2.00;;;;;;;3.41;100.00;99461.72;5073963;28;20021;-80
2023/01/09 01:40:15;;;;;;;5.60;2.15;;;;;;;3.42;100.00;99475.44;5072274;28;20021;-80
2023/01/09 01:42:48;;;;;;;9.60;1.90;;;;;;;3.41;100.00;99473.75;5074616;28;20070;-79
2023/01/09 01:45:28;;;;;;;7.13;1.95;;;;;;;3.38;100.00;99474.66;5075717;28;20055;-80
2023/01/09 01:48:08;;;;;;;3.17;1.58;;;;;;;3.39;100.00;99476.34;5061419;28;20025;-80
2023/01/09 01:50:43;;;;;;;6.10;1.98;;;;;;;3.42;100.00;99476.31;5072031;28;20108;-80
2023/01/09 01:53:08;;;;;;;7.30;1.88;;;;;;;3.45;100.00;99470.25;5071403;28;20025;-80
2023/01/09 01:55:37;;;;;;;4.28;1.85;;;;;;;3.37;100.00;99472.97;5072943;28;20108;-80
2023/01/09 01:58:05;;;;;;;6.72;2.00;;;;;;;3.36;100.00;99471.25;5073219;28;20078;-80
2023/01/09 02:00:35;;;;;;;4.00;1.73;;;;;;;3.35;100.00;99484.16;5072304;28;20025;-80
2023/01/09 02:03:01;;;;;;;8.88;1.70;;;;;;;3.32;100.00;99476.47;5074006;28;20460;-80
2023/01/09 02:05:27;;;;;;;6.18;1.77;;;;;;;3.22;100.00;99471.47;5072583;28;20036;-80
2023/01/09 02:07:52;;;;;;;5.18;1.92;;;;;;;3.26;100.00;99483.41;5071587;28;20221;-80
2023/01/09 02:10:22;;;;;;;8.77;2.17;;;;;;;3.22;100.00;99486.06;5076845;28;20028;-80
2023/01/09 02:12:47;;;;;;;8.02;2.35;;;;;;;3.19;100.00;99484.38;5070290;28;20075;-80
2023/01/09 02:15:14;;;;;;;5.28;1.80;;;;;;;3.14;100.00;99483.63;5071360;28;20475;-80
2023/01/09 02:18:10;;;;;;;5.68;1.77;;;;;;;3.12;100.00;99476.78;5077506;28;20107;-80
2023/01/09 02:20:53;;;;;;;3.42;1.75;;;;;;;3.11;100.00;99472.53;5077918;28;20406;-80
2023/01/09 02:23:41;;;;;;;6.70;2.13;;;;;;;3.05;100.00;99473.44;5076314;28;20463;-81
2023/01/09 02:26:09;;;;;;;5.97;2.15;;;;;;;3.09;100.00;99474.25;5073464;28;20471;-80
2023/01/09 02:28:56;;;;;;;4.55;2.08;;;;;;;3.08;100.00;99480.28;5071869;28;20182;-80
2023/01/09 02:31:24;;;;;;;5.47;2.05;;;;;;;3.09;100.00;99469.09;5072183;28;20406;-81
2023/01/09 02:33:58;;;;;;;9.75;2.40;;;;;;;3.09;100.00;99475.09;5072670;28;20063;-80
2023/01/09 02:36:41;;;;;;;5.57;2.30;;;;;;;3.03;100.00;99468.31;5083339;28;20028;-80
2023/01/09 02:39:35;;;;;;;6.00;2.50;;;;;;;3.05;100.00;99470.88;5072681;28;20127;-80
2023/01/09 02:42:20;;;;;;;;;;;;;;;3.00;100.00;99467.50;5072872;28;20029;-80
2023/01/09 02:44:45;;;;;;;6.68;1.95;;;;;;;2.90;100.00;99459.06;5071410;28;19913;-80
2023/01/09 02:47:16;;;;;;;9.10;2.80;;;;;;;2.97;100.00;99467.56;5067228;28;20062;-80
2023/01/09 02:49:45;;;;;;;5.85;2.13;;;;;;;2.90;100.00;99474.50;5051741;28;20140;-80
2023/01/09 02:52:46;;;;;;;5.60;2.40;;;;;;;2.92;100.00;99469.34;5070724;28;20059;-80
2023/01/09 02:55:36;;;;;;;4.20;1.98;;;;;;;2.86;100.00;99465.13;5072247;28;20062;-80
2023/01/09 02:58:29;;;;;;;8.95;2.50;;;;;;;2.90;100.00;99461.63;5071493;28;20056;-80
2023/01/09 03:01:06;;;;;;;12.25;2.58;;;;;;;2.93;100.00;99451.31;5059247;28;20024;-80
2023/01/09 03:03:37;;;;;;;8.95;2.83;;;;;;;2.92;100.00;99452.19;5071065;28;20029;-80
2023/01/09 03:06:24;;;;;;;8.88;2.95;;;;;;;2.91;100.00;99455.63;5072005;28;20024;-80
2023/01/09 03:09:01;;;;;;;10.55;2.63;;;;;;;2.92;100.00;99448.75;5072139;28;20067;-80
2023/01/09 03:11:33;;;;;;;6.78;3.17;;;;;;;2.85;100.00;99437.72;5070969;28;20521;-80
2023/01/09 03:14:07;;;;;;;6.88;2.70;;;;;;;2.80;100.00;99450.63;5071876;28;20531;-80
2023/01/09 03:16:36;;;;;;;10.75;2.72;;;;;;;2.78;100.00;99441.25;5071817;28;20031;-80
2023/01/09 03:19:07;;;;;;;10.02;3.13;;;;;;;2.87;100.00;99463.41;5070463;28;20024;-80
2023/01/09 03:21:34;;;;;;;11.93;2.97;;;;;;;2.84;100.00;99466.88;5072219;28;20036;-80
2023/01/09 03:24:01;;;;;;;13.75;3.45;;;;;;;2.81;100.00;99459.19;5086738;28;20475;-80
2023/01/09 03:26:28;;;;;;;9.32;3.03;;;;;;;2.77;100.00;99463.53;5071249;28;20033;-80
2023/01/09 03:28:54;;;;;;;12.30;3.33;;;;;;;2.86;100.00;99469.44;5073475;28;20024;-80
2023/01/09 03:31:20;;;;;;;12.57;3.60;;;;;;;2.82;100.00;99473.78;5069486;28;20028;-80
2023/01/09 03:33:45;;;;;;;11.57;3.42;;;;;;;2.89;100.00;99475.38;5073857;28;20126;-81
2023/01/09 03:36:13;;;;;;;10.70;3.40;;;;;;;2.89;100.00;99472.81;5074459;28;20122;-80
2023/01/09 03:38:39;;;;;;;13.68;3.60;;;;;;;2.81;100.00;99449.78;5073583;28;20028;-80
2023/01/09 03:41:04;;;;;;;10.13;3.30;;;;;;;2.93;100.00;99469.31;5072193;28;20478;-81
2023/01/09 03:43:30;;;;;;;12.50;3.53;;;;;;;2.93;100.00;99461.59;5072700;28;20032;-81
2023/01/09 03:45:55;;;;;;;16.58;3.50;;;;;;;2.95;100.00;99465.00;5079324;28;20127;-80
2023/01/09 03:48:21;;;;;;;9.13;2.80;;;;;;;2.96;100.00;99471.00;5064167;28;20025;-81
2023/01/09 03:50:51;;;;;;;10.40;3.35;;;;;;;3.01;100.00;99475.22;5073836;28;20356;-80
2023/01/09 03:53:18;;;;;;;11.52;3.38;;;;;;;2.95;100.00;99461.59;5069766;28;20021;-81
2023/01/09 03:55:49;;;;;;;7.55;3.15;;;;;;;3.00;100.00;99468.34;5071800;28;20434;-81
2023/01/09 03:58:15;;;;;;;6.95;3.08;;;;;;;2.98;100.00;99464.13;5071206;28;20467;-81
2023/01/09 04:00:43;;;;;;;12.82;2.85;;;;;;;2.96;100.00;99465.84;5071180;28;20017;-81
2023/01/09 04:03:08;;;;;;;8.82;3.03;;;;;;;2.94;100.00;99462.44;5085421;28;20028;-81
2023/01/09 04:05:34;;;;;;;10.27;2.85;;;;;;;3.02;100.00;99474.34;5071325;28;20032;-81
2023/01/09 04:08:00;;;;;;;9.70;3.53;;;;;;;3.04;100.00;99464.00;5070527;28;20124;-81
2023/01/09 04:10:25;;;;;;;9.98;3.10;;;;;;;3.16;100.00;99468.13;5056889;28;20380;-81
2023/01/09 04:12:50;;;;;;;9.07;3.55;;;;;;;3.19;100.00;99453.47;5072654;28;20123;-80
2023/01/09 04:15:16;;;;;;;16.20;3.83;;;;;;;3.37;100.00;99467.81;5073663;28;20017;-80
2023/01/09 04:17:41;;;;;;;11.63;3.47;;;;;;;3.41;100.00;99471.19;5075067;28;20093;-81
2023/01/09 04:20:08;;;;;;;10.73;3.58;;;;;;;3.47;100.00;99453.91;5074951;28;20028;-81
2023/01/09 04:22:33;;;;;;;12.98;3.53;;;;;;;3.48;100.00;99445.28;5074160;28;20108;-80
2023/01/09 04:24:58;;;;;;;15.65;3.45;;;;;;;3.65;100.00;99463.03;5075177;28;20052;-81
2023/01/09 04:27:24;;;;;;;8.57;3.60;;;;;;;3.64;100.00;99456.19;5060012;28;20083;-81
2023/01/09 04:29:49;;;;;;;11.95;3.40;;;;;;;3.75;100.00;99479.19;5074088;28;20379;-81
2023/01/09 04:32:14;;;;;;;9.65;3.33;;;;;;;3.73;100.00;99455.19;5074715;28;20020;-81
2023/01/09 04:34:40;;;;;;;12.55;3.67;;;;;;;3.81;100.00;99463.63;5075066;28;20464;-81
2023/01/09 04:37:05;;;;;;;10.10;3.08;;;;;;;3.80;100.00;99466.25;5073644;28;20048;-81
2023/01/09 04:39:30;;;;;;;13.20;3.60;;;;;;;3.85;100.00;99465.25;5082394;28;20025;-81
2023/01/09 04:41:56;;;;;;;10.05;2.72;;;;;;;3.85;100.00;99467.00;5073856;28;20029;-81
2023/01/09 04:44:25;;;;;;;11.18;2.95;;;;;;;3.85;100.00;99456.69;5072793;28;20102;-80
2023/01/09 04:46:51;;;;;;;9.73;3.00;;;;;;;3.88;100.00;99465.19;5077649;28;20030;-81
2023/01/09 04:49:16;;;;;;;12.50;3.03;;;;;;;3.87;100.00;99455.78;5070563;28;20035;-81
2023/01/09 04:51:41;;;;;;;13.70;2.95;;;;;;;3.91;100.00;99464.31;5085996;28;20024;-81
2023/01/09 04:54:07;;;;;;;8.43;2.53;;;;;;;3.91;100.00;99472.88;5074319;28;20032;-81
2023/01/09 04:56:32;;;;;;;8.32;3.13;;;;;;;3.95;100.00;99471.94;5082552;28;20426;-81
2023/01/09 04:58:57;;;;;;;14.45;2.85;;;;;;;3.95;100.00;99459.03;5074349;28;21586;-81
2023/01/09 05:01:23;;;;;;;11.85;3.40;;;;;;;3.99;100.00;99457.28;5086641;28;20033;-81
2023/01/09 05:03:48;;;;;;;11.77;2.90;;;;;;;4.07;100.00;99467.44;5073610;28;20035;-81
2023/01/09 05:06:14;;;;;;;12.45;3.25;;;;;;;4.04;100.00;99454.59;5084386;28;20550;-81
2023/01/09 05:08:39;;;;;;;17.17;3.15;;;;;;;4.08;100.00;99462.25;5074098;28;20073;-80
2023/01/09 05:11:05;;;;;;;16.10;2.80;;;;;;;4.08;100.00;99453.66;5073594;28;20357;-81
2023/01/09 05:13:30;;;;;;;12.27;3.13;;;;;;;4.13;100.00;99459.59;5073508;28;20021;-80
2023/01/09 05:15:55;;;;;;;14.32;3.53;;;;;;;4.12;100.00;99460.47;5074231;28;20060;-81
2023/01/09 05:18:20;;;;;;;12.38;3.53;;;;;;;4.13;100.00;99447.53;5080854;28;20017;-81
2023/01/09 05:20:46;;;;;;;9.55;3.03;;;;;;;4.09;100.00;99448.50;5074114;28;20119;-81
2023/01/09 05:23:11;;;;;;;12.43;3.08;;;;;;;4.16;100.00;99451.81;5073449;28;20020;-81
2023/01/09 05:25:36;;;;;;;12.38;2.83;;;;;;;4.20;100.00;99462.03;5071809;28;20024;-81
2023/01/09 05:28:02;;;;;;;12.88;3.45;;;;;;;4.18;100.00;99448.28;5073632;28;20024;-81
2023/01/09 05:30:27;;;;;;;8.05;2.72;;;;;;;4.20;100.00;99454.28;5073848;28;20029;-80
2023/01/09 05:32:53;;;;;;;13.80;2.70;;;;;;;4.23;100.00;99454.22;5073071;28;20035;-81
2023/01/09 05:35:19;;;;;;;12.02;2.72;;;;;;;4.26;100.00;99452.47;5072556;28;20028;-81
2023/01/09 05:37:45;;;;;;;11.30;2.90;;;;;;;4.28;100.00;99459.28;5073752;28;20047;-81
2023/01/09 05:40:10;;;;;;;10.40;2.83;;;;;;;4.23;100.00;99436.16;5072658;28;20104;-81
2023/01/09 05:42:36;;;;;;;10.02;2.42;;;;;;;4.27;100.00;99438.69;5073360;28;20143;-81
2023/01/09 05:45:02;;;;;;;11.52;2.67;;;;;;;4.31;100.00;99445.47;5073546;28;20021;-81
2023/01/09 05:47:27;;;;;;;6.38;2.53;;;;;;;4.31;100.00;99438.56;5068714;28;20477;-80
2023/01/09 05:49:55;;;;;;;7.97;1.90;;;;;;;4.30;100.00;99438.63;5073658;28;20075;-81
2023/01/09 05:52:23;;;;;;;12.65;2.90;;;;;;;4.38;100.00;99437.59;5067055;28;20058;-81
2023/01/09 05:54:49;;;;;;;7.80;2.28;;;;;;;4.38;100.00;99440.19;5079022;28;20031;-81
2023/01/09 05:57:14;;;;;;;9.38;2.70;;;;;;;4.40;100.00;99438.41;5061308;28;20033;-81
2023/01/09 05:59:40;;;;;;;8.27;3.08;;;;;;;4.40;100.00;99435.81;5069279;28;20495;-81
2023/01/09 06:02:05;;;;;;;7.70;2.50;;;;;;;4.40;100.00;99432.38;5072240;28;20095;-81
2023/01/09 06:04:30;;;;;;;15.07;2.47;;;;;;;4.40;100.00;99432.38;5071894;28;20036;-81
2023/01/09 06:06:56;;;;;;;10.77;2.80;;;;;;;4.44;100.00;99434.00;5075321;28;20093;-81
2023/01/09 06:09:21;;;;;;;8.57;2.72;;;;;;;4.49;100.00;99432.19;5066700;28;20048;-81
2023/01/09 06:11:46;;;;;;;13.88;2.90;;;;;;;4.46;100.00;99432.25;5071975;28;20028;-81
2023/01/09 06:14:12;;;;;;;10.02;2.55;;;;;;;4.47;100.00;99419.31;5071773;28;20013;-81
2023/01/09 06:16:40;;;;;;;10.43;2.50;;;;;;;4.52;100.00;99419.25;5072836;28;20506;-81
2023/01/09 06:19:05;;;;;;;14.77;2.75;;;;;;;4.51;100.00;99414.09;5072292;28;20028;-81
2023/01/09 06:21:32;;;;;;;14.02;2.40;;;;;;;4.58;100.00;99434.59;5071244;28;20047;-81
2023/01/09 06:23:57;;;;;;;10.05;2.85;;;;;;;4.60;100.00;99429.38;5076130;28;20482;-80
2023/01/09 06:26:24;;;;;;;12.63;2.42;;;;;;;4.44;100.00;99409.06;5066954;28;20107;-82
2023/01/09 06:28:49;;;;;;;13.85;2.53;;;;;;;4.61;100.00;99426.78;5077810;28;20074;-81
2023/01/09 06:31:15;;;;;;;11.88;2.25;;;;;;;4.56;100.00;99417.44;5072558;28;20024;-81
2023/01/09 06:33:40;;;;;;;15.75;2.53;;;;;;;4.64;100.00;99439.63;5072637;28;20070;-81
2023/01/09 06:36:05;;;;;;;11.98;2.72;;;;;;;4.66;100.00;99439.59;5071432;28;20456;-81
2023/01/09 06:38:31;;;;;;;9.80;2.50;;;;;;;4.66;100.00;99439.59;5072279;28;20029;-81
2023/01/09 06:40:56;;;;;;;13.38;2.45;;;;;;;4.64;100.00;99433.59;5079918;28;20016;-81
2023/01/09 06:43:21;;;;;;;12.23;2.75;;;;;;;4.70;100.00;99448.94;5070406;28;20102;-81
2023/01/09 06:45:47;;;;;;;10.20;3.17;;;;;;;4.72;100.00;99448.94;5072498;28;20111;-81
2023/01/09 06:48:12;;;;;;;9.07;2.42;;;;;;;4.75;100.00;99448.88;5069626;28;20099;-81
2023/01/09 06:50:37;;;;;;;7.13;2.17;;;;;;;4.75;100.00;99451.44;5071859;28;20025;-81
2023/01/09 06:53:03;;;;;;;7.93;2.30;;;;;;;4.75;100.00;99448.88;5072301;28;20024;-81
2023/01/09 06:55:28;;;;;;;13.38;2.70;;;;;;;4.77;100.00;99447.09;5072212;28;20413;-81
2023/01/09 06:57:54;;;;;;;10.18;2.28;;;;;;;4.73;100.00;99442.88;5071349;28;20031;-81
2023/01/09 07:00:19;;;;;;;7.80;2.03;;;;;;;4.80;100.00;99450.44;5070893;28;20028;-81
2023/01/09 07:02:44;;;;;;;12.15;2.40;;;;;;;4.84;100.00;99461.56;5071140;28;20150;-81
2023/01/09 07:05:10;;;;;;;14.60;3.35;;;;;;;4.85;100.00;99460.69;5072041;28;20028;-80
2023/01/09 07:07:37;;;;;;;7.97;2.83;;;;;;;4.89;100.00;99475.22;5071837;28;20072;-81
2023/01/09 07:10:03;;;;;;;7.90;2.03;;;;;;;4.85;100.00;99464.13;5071426;28;20020;-81
2023/01/09 07:12:29;;;;;;;6.47;2.40;;;;;;;4.86;100.00;99468.38;5072315;28;20020;-81
2023/01/09 07:14:54;;;;;;;10.23;3.20;;;;;;;4.73;100.00;99441.13;5071907;28;20021;-81
2023/01/09 07:17:19;;;;;;;12.13;2.28;;;;;;;4.91;100.00;99482.06;5062682;28;20042;-81
2023/01/09 07:19:45;;;;;;;9.80;2.90;;;;;;;4.90;100.00;99482.06;5072243;28;20403;-81
2023/01/09 07:22:10;;;;;;;12.15;2.65;;;;;;;4.84;100.00;99483.09;5071673;28;20085;-80
2023/01/09 07:24:35;;;;;;;13.75;3.33;;;;;;;4.91;100.00;99499.28;5069755;28;20046;-81
2023/01/09 07:27:01;;;;;;;12.13;2.20;;;;;;;4.89;100.00;99493.31;5079262;28;20077;-80
2023/01/09 07:29:26;;;;;;;11.93;3.03;;;;;;;4.90;100.00;99506.19;5075549;28;20432;-80
2023/01/09 07:31:52;;;;;;;17.67;2.70;;;;;;;4.93;100.00;99511.25;5071015;28;20130;-80
2023/01/09 07:34:18;;;;;;;10.90;2.85;;;;;;;4.91;100.00;99512.22;5062414;28;20021;-80
2023/01/09 07:36:45;;;;;;;11.68;3.25;;;;;;;4.90;100.00;99515.66;5071332;28;20020;-80
2023/01/09 07:39:11;;;;;;;13.60;3.80;;;;;;;4.89;100.00;99519.13;5076264;28;20025;-80
2023/01/09 07:41:38;;;;;;;11.68;2.90;;;;;;;4.87;100.00;99526.03;5071662;28;20027;-80
2023/01/09 07:44:03;;;;;;;13.52;3.53;;;;;;;4.89;100.00;99530.31;5082367;28;20216;-81
2023/01/09 07:46:28;;;;;;;10.60;3.90;;;;;;;4.88;100.00;99518.28;5076877;28;20048;-81
2023/01/09 07:48:54;;;;;;;6.88;3.00;;;;;;;4.90;100.00;99520.81;5077270;28;20051;-81
2023/01/09 07:51:19;;;;;;;14.55;3.83;;;;;;;4.86;100.00;99514.88;5074322;28;20032;-81
2023/01/09 07:53:44;;;;;;;13.57;3.50;;;;;;;4.91;100.00;99527.69;5073919;28;20468;-80
2023/01/09 07:56:10;;;;;;;10.68;3.97;;;;;;;4.93;100.00;99531.09;5075386;28;20052;-81
2023/01/09 07:58:37;;;;;;;11.05;3.67;;;;;;;4.97;100.00;99549.94;5075480;28;20020;-81
2023/01/09 08:01:03;;;;;;;9.88;3.35;;;;;;;4.94;100.00;99535.38;5074689;28;20020;-81
2023/01/09 08:03:28;;;;;;;14.45;3.60;;;;;;;4.97;100.00;99540.50;5073907;28;20602;-80
2023/01/09 08:05:53;;;;;;;9.70;3.42;;;;;;;4.89;100.00;99539.78;5075777;28;20032;-81
2023/01/09 08:08:18;;;;;;;12.25;3.58;;;;;;;4.90;100.00;99539.78;5075831;28;20045;-81
2023/01/09 08:10:44;;;;;;;10.40;4.03;;;;;;;4.95;100.00;99551.72;5074540;28;20482;-81
2023/01/09 08:13:09;;;;;;;11.07;4.50;;;;;;;4.89;100.00;99543.22;5073923;28;20036;-80
2023/01/09 08:15:35;;;;;;;13.07;4.15;;;;;;;4.90;100.00;99542.34;5076479;28;20032;-81
2023/01/09 08:18:00;;;;;;;9.55;3.67;;;;;;;4.98;100.00;99569.75;5074505;28;20533;-81
2023/01/09 08:20:26;;;;;;;11.13;4.22;;;;;;;4.98;100.00;99574.91;5073868;28;20024;-80
2023/01/09 08:22:53;;;;;;;12.73;3.65;;;;;;;4.98;100.00;99572.31;5074906;28;20042;-81
2023/01/09 08:25:19;;;;;;;16.17;3.83;;;;;;;4.90;100.00;99568.19;5073081;28;20017;-80
2023/01/09 08:27:45;;;;;;;9.50;3.63;;;;;;;4.97;100.00;99584.41;5068844;28;20453;-81
2023/01/09 08:30:11;;;;;;;10.40;3.65;;;;;;;4.96;100.00;99585.25;5068446;28;20075;-82
2023/01/09 08:32:40;;;;;;;10.95;3.78;;;;;;;4.94;100.00;99579.28;5063369;28;20078;-81
2023/01/09 08:35:06;;;;;;;8.57;3.67;;;;;;;5.05;100.00;99597.13;5076059;28;20063;-82
2023/01/09 08:37:32;;;;;;;14.10;4.50;;;;;;;5.01;100.00;99590.34;5073285;28;20136;-81
2023/01/09 08:39:57;;;;;;;12.93;3.83;;;;;;;5.07;100.00;99613.47;5070661;28;20103;-82
2023/01/09 08:47:53;;;;;;;15.38;3.95;;;;;;;5.07;100.00;99616.06;5071875;28;20455;-80
2023/01/09 08:50:18;;;;;;;11.77;4.00;;;;;;;5.08;100.00;99616.00;5073450;28;20021;-81
2023/01/09 08:52:44;;;;;;;12.85;4.15;;;;;;;5.13;100.00;99621.06;5074105;28;20454;-81
2023/01/09 08:55:09;;;;;;;14.43;3.88;;;;;;;5.09;100.00;99628.03;5074976;28;20028;-82
2023/01/09 08:57:34;;;;;;;13.25;4.40;;;;;;;5.00;100.00;99627.38;5074181;28;20017;-83
2023/01/09 09:00:00;;;;;;;12.80;4.47;;;;;;;5.05;100.00;99641.91;5072718;28;20024;-82
2023/01/09 09:02:25;;;;;;;15.77;4.00;;;;;;;5.11;100.00;99653.84;5071112;28;20785;-83
2023/01/09 09:04:52;;;;;;;9.82;3.50;;;;;;;5.00;100.00;99648.88;5072185;28;20418;-83
2023/01/09 09:07:25;;;;;;;16.48;3.70;;;;;;;5.09;100.00;99663.34;5062185;28;20122;-82
2023/01/09 09:09:53;;;;;;;10.40;4.07;;;;;;;5.07;100.00;99667.72;5088500;28;20032;-82
2023/01/09 09:12:19;;;;;;;11.88;3.70;;;;;;;5.09;100.00;99665.94;5087094;28;20036;-81
2023/01/09 09:17:28;;;;;;;14.07;4.30;;;;;;;5.14;100.00;99679.63;5070713;28;20809;-82
2023/01/09 09:19:53;;;;;;;12.73;3.83;;;;;;;5.15;100.00;99683.91;5062199;28;20024;-81
2023/01/09 09:22:18;;;;;;;11.13;4.43;;;;;;;5.17;100.00;99687.31;5069418;28;20107;-81
2023/01/09 09:24:44;;;;;;;14.68;4.15;;;;;;;5.18;100.00;99704.53;5077417;28;20029;-81
2023/01/09 09:27:09;;;;;;;13.45;4.20;;;;;;;5.18;100.00;99703.66;5070928;28;20491;-82
2023/01/09 09:29:34;;;;;;;11.57;4.47;;;;;;;5.16;100.00;99703.69;5070253;28;20025;-82
2023/01/09 09:32:00;;;;;;;7.82;3.75;;;;;;;5.11;100.00;99695.19;5072222;28;20444;-82
2023/01/09 09:34:25;;;;;;;10.32;4.75;;;;;;;5.11;100.00;99711.53;5072856;28;20032;-81
2023/01/09 09:36:50;;;;;;;7.43;4.05;;;;;;;5.15;100.00;99712.31;5070970;28;20016;-82
2023/01/09 09:39:16;;;;;;;15.10;4.80;;;;;;;5.10;100.00;99716.72;5069007;28;20115;-82
2023/01/09 09:45:24;;;;;;;12.98;4.88;;;;;;;5.16;100.00;99745.03;4981874;28;20049;-82
2023/01/09 09:48:05;;;;;;;16.23;4.70;;;;;;;5.19;100.00;99742.38;4991699;28;20150;-82
2023/01/09 09:50:48;;;;;;;13.15;5.15;;;;;;;5.24;100.00;99748.31;5054064;28;20035;-81
2023/01/09 09:53:33;;;;;;;14.00;5.13;;;;;;;5.28;100.00;99760.31;5065551;28;20528;-81
2023/01/09 09:55:58;;;;;;;12.38;4.70;;;;;;;5.28;100.00;99755.13;5073284;28;20089;-81
2023/01/09 09:58:37;;;;;;;16.27;5.65;;;;;;;5.32;100.00;99766.25;5073077;28;20434;-82
2023/01/09 10:01:05;;;;;;;17.17;4.72;;;;;;;5.29;100.00;99761.16;5080591;28;20021;-81
2023/01/09 10:03:37;;;;;;;12.98;5.22;;;;;;;5.36;100.00;99784.28;5083225;28;20071;-82
2023/01/09 10:06:29;;;;;;;12.10;5.18;;;;;;;5.46;100.00;99779.78;5077246;28;20024;-82
2023/01/09 10:09:05;;;;;;;13.07;5.35;;;;;;;5.43;100.00;99789.31;5054027;28;20099;-81
2023/01/09 10:11:58;;;;;;;13.57;5.13;;;;;;;5.49;100.00;99804.72;5049289;28;20522;-82
2023/01/09 10:14:23;;;;;;;13.20;5.47;;;;;;;5.52;100.00;99807.22;5054039;28;20450;-82
2023/01/09 10:16:51;;;;;;;18.92;6.55;;;;;;;5.60;100.00;99807.94;5056780;28;20507;-82
2023/01/09 10:19:43;;;;;;;16.67;5.65;;;;;;;5.64;100.00;99813.03;5064318;28;20060;-82
2023/01/09 10:22:14;;;;;;;13.20;5.15;;;;;;;5.57;100.00;99808.84;5060233;28;20020;-82
2023/01/09 10:24:53;;;;;;;15.77;6.65;;;;;;;5.54;100.00;99816.66;5047973;28;20037;-81
2023/01/09 10:27:53;;;;;;;15.02;5.55;;;;;;;5.60;100.00;99808.81;5038625;28;20028;-80
2023/01/09 10:30:41;;;;;;;16.52;5.32;;;;;;;5.56;100.00;99833.03;5052009;28;20472;-82
2023/01/09 10:33:26;;;;;;;9.27;5.30;;;;;;;5.54;100.00;99823.56;5052526;28;20108;-81
2023/01/09 10:36:01;;;;;;;17.25;6.05;;;;;;;5.58;100.00;99832.97;5051021;28;20025;-81
2023/01/09 10:38:32;;;;;;;15.27;5.63;;;;;;;5.59;100.00;99838.13;5056919;28;20396;-81
2023/01/09 10:41:06;;;;;;;20.17;6.28;;;;;;;5.58;100.00;99835.56;5051450;28;20025;-81
2023/01/09 10:43:43;;;;;;;13.70;5.60;;;;;;;5.58;100.00;99840.72;5043538;28;20032;-82
2023/01/09 10:46:20;;;;;;;12.95;5.55;;;;;;;5.63;100.00;99826.84;5051932;28;20096;-81
2023/01/09 10:48:53;;;;;;;15.15;5.60;;;;;;;5.61;100.00;99835.50;5047917;28;20033;-82
2023/01/09 10:51:22;;;;;;;18.13;5.10;;;;;;;5.51;100.00;99824.47;5059866;28;20028;-81
2023/01/09 10:53:51;;;;;;;14.95;6.68;;;;;;;5.49;100.00;99831.41;5045890;28;20082;-81
2023/01/09 10:56:26;;;;;;;16.23;6.40;;;;;;;5.34;100.00;99835.13;5048259;28;20056;-81
2023/01/09 10:58:53;;;;;;;13.63;5.53;;;;;;;5.29;100.00;99844.69;5063006;28;20382;-81
2023/01/09 11:01:26;;;;;;;19.55;6.10;;;;;;;5.29;100.00;99841.25;5054422;28;20025;-81
2023/01/09 11:03:51;;;;;;;17.70;6.05;;;;;;;5.33;100.00;99848.94;5071901;28;20039;-81
2023/01/09 11:06:26;;;;;;;19.33;6.93;;;;;;;5.32;100.00;99852.41;5051699;28;20032;-80
2023/01/09 11:09:00;;;;;;;25.30;6.50;;;;;;;5.32;100.00;99852.41;5070641;28;20074;-81
2023/01/09 11:11:44;;;;;;;18.67;6.30;;;;;;;5.29;100.00;99855.03;5071590;28;20138;-81
2023/01/09 11:14:36;;;;;;;17.65;6.32;;;;;;;5.25;100.00;99847.38;5063786;28;20116;-81
2023/01/09 11:17:03;;;;;;;17.98;6.70;;;;;;;5.26;100.00;99847.34;5066451;28;20066;-82
2023/01/09 11:19:30;;;;;;;24.02;7.78;;;;;;;5.25;100.00;99852.53;5073020;28;20078;-81
2023/01/09 11:22:15;;;;;;;18.13;7.60;;;;;;;5.18;100.00;99850.94;5072618;28;20021;-81
2023/01/09 11:24:40;;;;;;;19.30;8.27;;;;;;;5.24;100.00;99859.44;5078304;28;20037;-81
2023/01/09 11:27:11;;;;;;;16.90;8.40;;;;;;;5.30;100.00;99863.66;5077530;28;20031;-81
2023/01/09 11:29:37;;;;;;;14.23;8.13;;;;;;;5.32;100.00;99865.31;5064021;28;20056;-81
2023/01/09 11:32:03;;;;;;;23.58;9.25;;;;;;;5.45;100.00;99873.72;5072398;28;20114;-80
2023/01/09 11:34:35;;;;;;;21.08;9.55;;;;;;;5.64;100.00;99876.81;5077225;28;20028;-81
2023/01/09 11:37:12;;;;;;;20.70;9.05;;;;;;;5.80;100.00;99867.03;5074469;28;20019;-80
2023/01/09 11:39:44;;;;;;;24.48;9.23;;;;;;;5.92;100.00;99881.44;5082539;22;20044;-81
2023/01/09 11:42:49;;;;;;;24.10;9.48;;;;;;;5.93;100.00;99885.78;5087122;28;20020;-82
2023/01/09 11:45:14;;;;;;;13.90;7.75;;;;;;;5.91;100.00;99890.94;5085332;28;20048;-82
2023/01/09 11:47:40;;;;;;;14.35;7.50;;;;;;;5.87;100.00;99886.72;5091751;28;20020;-82
2023/01/09 11:50:21;;;;;;;16.25;7.47;;;;;;;5.89;100.00;99899.66;5084472;28;20057;-82
2023/01/09 11:53:04;;;;;;;14.00;7.15;;;;;;;5.87;100.00;99895.34;5094989;28;20028;-81